Terminal Aerodrome Forecast
Issued by NWS Wilmington, NC

Home | Current Version | Previous Version | Text Only | Print | Product List | Glossary On
Versions: 1 2 3 4 5 6 7 8 9 10 11 12 13 14 15 16
000
FTUS42 KILM 232324
TAFILM
TAF
KILM 232324Z 2400/2424 VRB03KT P6SM SKC
     FM241400 10005KT P6SM FEW015
     FM241600 14006KT P6SM FEW250
     FM242100 17007KT P6SM SCT040
     FM242200 17007KT P6SM SCT250=

USA.gov is the U.S. government's official web portal to all federal, state and local government web resources and services.